Parkside, New York
Current Conditions -  °F | °C
As of 11:51 PM on Sunday 21 Dec 2014 (Local Time) from KLGA Reporting Station
Overcast Overcast  
Wind Chill: 29°   Ceiling: 1300
Heat Index: 35°   Visibility: 10mi
Dew Point: 30°   Wind: 7mph
Humidity: 82%   Direction: 10°N
Pressure: 30.33"   Gusts: NA
Location:  40.7228°N, 73.845°W
Report Text: KLGA 220451Z 01006KT 10SM OVC013 02/M01 A3033 RMK AO2 SLP270 T00171011 400220000
Loading
Personal Weather Stations






























Interactive Weather Map New forecast layout! Learn more

10-Day Weather Forecast

Advertisements
Track Severe Weather on mobile